Buena Vista, Wisconsin
Current Conditions -  °F | °C
As of 8:55 PM on Friday 19 Dec 2014 (Local Time) from KSTE Reporting Station
Overcast Overcast  
Wind Chill: 22°   Ceiling: 1000
Heat Index: 22°   Visibility: 10mi
Dew Point: 19°   Wind: 0mph
Humidity: 87%   Direction: NA
Pressure: 30.23"   Gusts: NA
Location:  44.4117°N, 89.5378°W
Report Text: KSTE 200255Z AUTO 00000KT 10SM OVC010 M05/M07 A3023 RMK AO2 T10531071
Loading
Personal Weather Stations






























Interactive Weather Map New forecast layout! Learn more

10-Day Weather Forecast

Advertisements
Track Severe Weather on mobile